sensor_id;sensor_type;location;lat;lon;timestamp;temperature;humidity
19050;DHT22;9657;45.940;12.840;2023-04-15T00:00:45;15.10;61.60
19050;DHT22;9657;45.940;12.840;2023-04-15T00:03:12;15.10;61.60
19050;DHT22;9657;45.940;12.840;2023-04-15T00:05:41;15.10;61.60
19050;DHT22;9657;45.940;12.840;2023-04-15T00:08:08;15.10;61.70
19050;DHT22;9657;45.940;12.840;2023-04-15T00:10:35;15.10;61.60
19050;DHT22;9657;45.940;12.840;2023-04-15T00:13:02;15.10;61.60
19050;DHT22;9657;45.940;12.840;2023-04-15T00:15:29;15.10;61.60
19050;DHT22;9657;45.940;12.840;2023-04-15T00:17:56;15.10;61.60
19050;DHT22;9657;45.940;12.840;2023-04-15T00:20:23;15.10;61.70
19050;DHT22;9657;45.940;12.840;2023-04-15T00:22:52;15.10;61.70
19050;DHT22;9657;45.940;12.840;2023-04-15T00:25:19;15.10;61.70
19050;DHT22;9657;45.940;12.840;2023-04-15T00:27:46;15.10;61.70
19050;DHT22;9657;45.940;12.840;2023-04-15T00:30:13;15.10;61.70
19050;DHT22;9657;45.940;12.840;2023-04-15T00:32:40;15.10;61.70
19050;DHT22;9657;45.940;12.840;2023-04-15T00:35:08;15.10;61.70
19050;DHT22;9657;45.940;12.840;2023-04-15T00:37:35;15.10;61.70
19050;DHT22;9657;45.940;12.840;2023-04-15T00:40:05;15.10;61.70
19050;DHT22;9657;45.940;12.840;2023-04-15T00:42:34;15.10;61.70
19050;DHT22;9657;45.940;12.840;2023-04-15T00:45:02;15.10;61.80
19050;DHT22;9657;45.940;12.840;2023-04-15T00:47:31;15.10;61.80
19050;DHT22;9657;45.940;12.840;2023-04-15T00:49:59;15.10;61.80
19050;DHT22;9657;45.940;12.840;2023-04-15T00:52:26;15.10;61.70
19050;DHT22;9657;45.940;12.840;2023-04-15T00:54:53;15.10;61.80
19050;DHT22;9657;45.940;12.840;2023-04-15T00:57:21;15.10;61.80
19050;DHT22;9657;45.940;12.840;2023-04-15T00:59:49;15.10;61.80
19050;DHT22;9657;45.940;12.840;2023-04-15T01:04:52;15.10;61.80
19050;DHT22;9657;45.940;12.840;2023-04-15T01:07:19;15.10;61.90
19050;DHT22;9657;45.940;12.840;2023-04-15T01:09:46;15.10;61.90
19050;DHT22;9657;45.940;12.840;2023-04-15T01:12:14;15.10;61.90
19050;DHT22;9657;45.940;12.840;2023-04-15T01:14:44;15.10;62.00
19050;DHT22;9657;45.940;12.840;2023-04-15T01:17:11;15.10;62.00
19050;DHT22;9657;45.940;12.840;2023-04-15T01:19:38;15.10;62.00
19050;DHT22;9657;45.940;12.840;2023-04-15T01:22:05;15.10;62.00
19050;DHT22;9657;45.940;12.840;2023-04-15T01:24:32;15.10;62.00
19050;DHT22;9657;45.940;12.840;2023-04-15T01:27:01;15.10;62.10
19050;DHT22;9657;45.940;12.840;2023-04-15T01:29:30;15.10;62.00
19050;DHT22;9657;45.940;12.840;2023-04-15T01:31:57;15.10;62.10
19050;DHT22;9657;45.940;12.840;2023-04-15T01:34:24;15.10;62.10
19050;DHT22;9657;45.940;12.840;2023-04-15T01:36:51;15.10;62.10
19050;DHT22;9657;45.940;12.840;2023-04-15T01:39:18;15.10;62.10
19050;DHT22;9657;45.940;12.840;2023-04-15T01:41:46;15.10;62.10
19050;DHT22;9657;45.940;12.840;2023-04-15T01:44:14;15.10;62.20
19050;DHT22;9657;45.940;12.840;2023-04-15T01:46:41;15.10;62.10
19050;DHT22;9657;45.940;12.840;2023-04-15T01:49:08;15.10;62.10
19050;DHT22;9657;45.940;12.840;2023-04-15T01:51:35;15.10;62.20
19050;DHT22;9657;45.940;12.840;2023-04-15T01:54:02;15.10;62.20
19050;DHT22;9657;45.940;12.840;2023-04-15T01:56:29;15.10;62.20
19050;DHT22;9657;45.940;12.840;2023-04-15T01:58:56;15.10;62.20
19050;DHT22;9657;45.940;12.840;2023-04-15T02:01:25;15.10;62.30
19050;DHT22;9657;45.940;12.840;2023-04-15T02:03:52;15.10;62.30
19050;DHT22;9657;45.940;12.840;2023-04-15T02:06:19;15.10;62.30
19050;DHT22;9657;45.940;12.840;2023-04-15T02:08:46;15.10;62.40
19050;DHT22;9657;45.940;12.840;2023-04-15T02:11:13;15.00;62.30
19050;DHT22;9657;45.940;12.840;2023-04-15T02:13:40;15.00;62.30
19050;DHT22;9657;45.940;12.840;2023-04-15T02:16:14;15.00;62.30
19050;DHT22;9657;45.940;12.840;2023-04-15T02:18:43;15.10;62.30
19050;DHT22;9657;45.940;12.840;2023-04-15T02:21:10;15.00;62.30
19050;DHT22;9657;45.940;12.840;2023-04-15T02:23:37;15.00;62.30
19050;DHT22;9657;45.940;12.840;2023-04-15T02:26:04;15.00;62.30
19050;DHT22;9657;45.940;12.840;2023-04-15T02:28:32;15.00;62.30
19050;DHT22;9657;45.940;12.840;2023-04-15T02:30:59;15.00;62.30
19050;DHT22;9657;45.940;12.840;2023-04-15T02:33:26;15.00;62.30
19050;DHT22;9657;45.940;12.840;2023-04-15T02:35:55;15.00;62.30
19050;DHT22;9657;45.940;12.840;2023-04-15T02:38:22;15.00;62.30
19050;DHT22;9657;45.940;12.840;2023-04-15T02:40:49;15.00;62.30
19050;DHT22;9657;45.940;12.840;2023-04-15T02:43:16;15.00;62.30
19050;DHT22;9657;45.940;12.840;2023-04-15T02:45:44;15.00;62.30
19050;DHT22;9657;45.940;12.840;2023-04-15T02:48:11;15.00;62.30
19050;DHT22;9657;45.940;12.840;2023-04-15T02:50:38;15.00;62.30
19050;DHT22;9657;45.940;12.840;2023-04-15T02:53:07;15.00;62.30
19050;DHT22;9657;45.940;12.840;2023-04-15T02:55:34;15.00;62.30
19050;DHT22;9657;45.940;12.840;2023-04-15T02:58:01;15.00;63.10
19050;DHT22;9657;45.940;12.840;2023-04-15T03:00:28;15.00;62.30
19050;DHT22;9657;45.940;12.840;2023-04-15T03:02:58;15.00;62.30
19050;DHT22;9657;45.940;12.840;2023-04-15T03:05:25;15.00;62.30
19050;DHT22;9657;45.940;12.840;2023-04-15T03:07:52;15.00;62.30
19050;DHT22;9657;45.940;12.840;2023-04-15T03:10:21;15.00;62.30
19050;DHT22;9657;45.940;12.840;2023-04-15T03:12:48;15.00;62.30
19050;DHT22;9657;45.940;12.840;2023-04-15T03:15:16;15.00;62.30
19050;DHT22;9657;45.940;12.840;2023-04-15T03:17:43;15.00;62.40
19050;DHT22;9657;45.940;12.840;2023-04-15T03:20:10;15.00;62.30
19050;DHT22;9657;45.940;12.840;2023-04-15T03:22:37;15.00;62.30
19050;DHT22;9657;45.940;12.840;2023-04-15T03:25:04;15.00;62.40
19050;DHT22;9657;45.940;12.840;2023-04-15T03:27:33;15.00;62.40
19050;DHT22;9657;45.940;12.840;2023-04-15T03:30:00;15.00;62.50
19050;DHT22;9657;45.940;12.840;2023-04-15T03:32:27;15.00;62.40
19050;DHT22;9657;45.940;12.840;2023-04-15T03:34:54;15.00;62.50
19050;DHT22;9657;45.940;12.840;2023-04-15T03:37:21;15.00;62.50
19050;DHT22;9657;45.940;12.840;2023-04-15T03:39:48;15.00;62.50
19050;DHT22;9657;45.940;12.840;2023-04-15T03:42:16;15.00;62.50
19050;DHT22;9657;45.940;12.840;2023-04-15T03:44:44;15.00;62.50
19050;DHT22;9657;45.940;12.840;2023-04-15T03:47:11;15.00;62.50
19050;DHT22;9657;45.940;12.840;2023-04-15T03:49:38;15.00;62.50
19050;DHT22;9657;45.940;12.840;2023-04-15T03:52:06;15.00;62.50
19050;DHT22;9657;45.940;12.840;2023-04-15T03:54:33;15.00;62.50
19050;DHT22;9657;45.940;12.840;2023-04-15T03:57:00;15.00;62.50
19050;DHT22;9657;45.940;12.840;2023-04-15T03:59:27;15.00;62.50
19050;DHT22;9657;45.940;12.840;2023-04-15T04:01:55;15.00;62.50
19050;DHT22;9657;45.940;12.840;2023-04-15T04:04:22;15.00;62.50
19050;DHT22;9657;45.940;12.840;2023-04-15T04:06:49;15.00;62.60
19050;DHT22;9657;45.940;12.840;2023-04-15T04:09:16;15.00;62.60
19050;DHT22;9657;45.940;12.840;2023-04-15T04:11:43;15.00;62.60
19050;DHT22;9657;45.940;12.840;2023-04-15T04:14:11;15.00;62.60
19050;DHT22;9657;45.940;12.840;2023-04-15T04:16:38;15.00;62.60
19050;DHT22;9657;45.940;12.840;2023-04-15T04:19:06;15.00;62.60
19050;DHT22;9657;45.940;12.840;2023-04-15T04:21:33;15.00;62.60
19050;DHT22;9657;45.940;12.840;2023-04-15T04:24:01;15.00;62.60
19050;DHT22;9657;45.940;12.840;2023-04-15T04:26:28;15.00;62.70
19050;DHT22;9657;45.940;12.840;2023-04-15T04:28:55;15.00;62.60
19050;DHT22;9657;45.940;12.840;2023-04-15T04:31:22;15.00;62.60
19050;DHT22;9657;45.940;12.840;2023-04-15T04:33:49;15.00;62.70
19050;DHT22;9657;45.940;12.840;2023-04-15T04:36:17;15.00;62.70
19050;DHT22;9657;45.940;12.840;2023-04-15T04:38:44;15.00;62.70
19050;DHT22;9657;45.940;12.840;2023-04-15T04:41:11;15.00;62.70
19050;DHT22;9657;45.940;12.840;2023-04-15T04:43:38;15.00;62.70
19050;DHT22;9657;45.940;12.840;2023-04-15T04:46:05;15.00;62.70
19050;DHT22;9657;45.940;12.840;2023-04-15T04:48:32;15.00;62.70
19050;DHT22;9657;45.940;12.840;2023-04-15T04:50:59;15.00;62.70
19050;DHT22;9657;45.940;12.840;2023-04-15T04:53:28;15.00;62.70
19050;DHT22;9657;45.940;12.840;2023-04-15T04:55:55;15.00;62.70
19050;DHT22;9657;45.940;12.840;2023-04-15T04:58:22;14.90;62.60
19050;DHT22;9657;45.940;12.840;2023-04-15T05:00:50;15.00;62.70
19050;DHT22;9657;45.940;12.840;2023-04-15T05:03:17;15.00;62.70
19050;DHT22;9657;45.940;12.840;2023-04-15T05:05:44;14.90;62.60
19050;DHT22;9657;45.940;12.840;2023-04-15T05:08:11;15.00;62.70
19050;DHT22;9657;45.940;12.840;2023-04-15T05:10:39;15.00;62.80
19050;DHT22;9657;45.940;12.840;2023-04-15T05:13:06;15.00;62.80
19050;DHT22;9657;45.940;12.840;2023-04-15T05:15:33;14.90;62.70
19050;DHT22;9657;45.940;12.840;2023-04-15T05:18:01;15.00;62.80
19050;DHT22;9657;45.940;12.840;2023-04-15T05:20:28;14.90;62.80
19050;DHT22;9657;45.940;12.840;2023-04-15T05:22:55;15.00;62.90
19050;DHT22;9657;45.940;12.840;2023-04-15T05:25:22;14.90;62.80
19050;DHT22;9657;45.940;12.840;2023-04-15T05:27:51;15.00;62.80
19050;DHT22;9657;45.940;12.840;2023-04-15T05:30:18;14.90;62.80
19050;DHT22;9657;45.940;12.840;2023-04-15T05:32:45;14.90;62.80
19050;DHT22;9657;45.940;12.840;2023-04-15T05:35:12;14.90;62.70
19050;DHT22;9657;45.940;12.840;2023-04-15T05:37:39;14.90;62.80
19050;DHT22;9657;45.940;12.840;2023-04-15T05:40:07;14.90;62.70
19050;DHT22;9657;45.940;12.840;2023-04-15T05:42:35;14.90;62.80
19050;DHT22;9657;45.940;12.840;2023-04-15T05:45:04;14.90;62.80
19050;DHT22;9657;45.940;12.840;2023-04-15T05:47:34;14.90;62.70
19050;DHT22;9657;45.940;12.840;2023-04-15T05:50:01;14.90;62.60
19050;DHT22;9657;45.940;12.840;2023-04-15T05:52:28;14.90;62.60
19050;DHT22;9657;45.940;12.840;2023-04-15T05:54:55;14.90;62.60
19050;DHT22;9657;45.940;12.840;2023-04-15T05:57:22;14.90;62.60
19050;DHT22;9657;45.940;12.840;2023-04-15T05:59:49;14.90;62.60
19050;DHT22;9657;45.940;12.840;2023-04-15T06:02:18;14.90;62.50
19050;DHT22;9657;45.940;12.840;2023-04-15T06:04:45;14.90;62.60
19050;DHT22;9657;45.940;12.840;2023-04-15T06:07:13;14.90;62.50
19050;DHT22;9657;45.940;12.840;2023-04-15T06:09:40;14.90;62.60
19050;DHT22;9657;45.940;12.840;2023-04-15T06:12:07;14.90;62.50
19050;DHT22;9657;45.940;12.840;2023-04-15T06:14:36;14.90;62.50
19050;DHT22;9657;45.940;12.840;2023-04-15T06:17:04;15.00;62.60
19050;DHT22;9657;45.940;12.840;2023-04-15T06:19:33;14.90;62.50
19050;DHT22;9657;45.940;12.840;2023-04-15T06:22:01;14.90;62.50
19050;DHT22;9657;45.940;12.840;2023-04-15T06:24:28;15.00;62.60
19050;DHT22;9657;45.940;12.840;2023-04-15T06:26:56;14.90;62.50
19050;DHT22;9657;45.940;12.840;2023-04-15T06:29:23;14.90;62.50
19050;DHT22;9657;45.940;12.840;2023-04-15T06:31:50;15.00;62.50
19050;DHT22;9657;45.940;12.840;2023-04-15T06:34:17;15.00;62.50
19050;DHT22;9657;45.940;12.840;2023-04-15T06:36:46;14.90;62.40
19050;DHT22;9657;45.940;12.840;2023-04-15T06:39:13;15.00;62.50
19050;DHT22;9657;45.940;12.840;2023-04-15T06:41:40;14.90;62.40
19050;DHT22;9657;45.940;12.840;2023-04-15T06:44:07;15.00;62.50
19050;DHT22;9657;45.940;12.840;2023-04-15T06:46:34;15.00;62.50
19050;DHT22;9657;45.940;12.840;2023-04-15T06:49:01;15.00;62.50
19050;DHT22;9657;45.940;12.840;2023-04-15T06:51:28;15.00;62.50
19050;DHT22;9657;45.940;12.840;2023-04-15T06:53:57;14.90;62.40
19050;DHT22;9657;45.940;12.840;2023-04-15T06:56:24;15.00;62.50
19050;DHT22;9657;45.940;12.840;2023-04-15T06:58:51;15.00;62.50
19050;DHT22;9657;45.940;12.840;2023-04-15T07:01:19;15.00;62.50
19050;DHT22;9657;45.940;12.840;2023-04-15T07:03:46;15.00;62.50
19050;DHT22;9657;45.940;12.840;2023-04-15T07:06:13;15.00;62.50
19050;DHT22;9657;45.940;12.840;2023-04-15T07:08:40;15.00;62.50
19050;DHT22;9657;45.940;12.840;2023-04-15T07:11:08;15.00;62.50
19050;DHT22;9657;45.940;12.840;2023-04-15T07:13:35;15.00;62.50
19050;DHT22;9657;45.940;12.840;2023-04-15T07:16:03;15.00;62.50
19050;DHT22;9657;45.940;12.840;2023-04-15T07:18:30;15.00;62.50
19050;DHT22;9657;45.940;12.840;2023-04-15T07:20:57;14.90;62.40
19050;DHT22;9657;45.940;12.840;2023-04-15T07:23:24;15.00;62.50
19050;DHT22;9657;45.940;12.840;2023-04-15T07:25:51;15.00;62.50
19050;DHT22;9657;45.940;12.840;2023-04-15T07:28:20;15.00;62.50
19050;DHT22;9657;45.940;12.840;2023-04-15T07:30:47;15.00;62.50
19050;DHT22;9657;45.940;12.840;2023-04-15T07:33:14;15.00;62.50
19050;DHT22;9657;45.940;12.840;2023-04-15T07:35:41;15.00;62.60
19050;DHT22;9657;45.940;12.840;2023-04-15T07:38:09;15.00;62.50
19050;DHT22;9657;45.940;12.840;2023-04-15T07:40:38;15.00;62.50
19050;DHT22;9657;45.940;12.840;2023-04-15T07:43:05;15.00;62.50
19050;DHT22;9657;45.940;12.840;2023-04-15T07:45:33;15.00;62.50
19050;DHT22;9657;45.940;12.840;2023-04-15T07:48:01;15.00;62.50
19050;DHT22;9657;45.940;12.840;2023-04-15T07:50:28;15.00;62.50
19050;DHT22;9657;45.940;12.840;2023-04-15T07:52:55;15.00;62.40
19050;DHT22;9657;45.940;12.840;2023-04-15T07:55:22;15.00;62.30
19050;DHT22;9657;45.940;12.840;2023-04-15T07:57:49;15.00;62.30
19050;DHT22;9657;45.940;12.840;2023-04-15T08:00:16;15.00;62.30
19050;DHT22;9657;45.940;12.840;2023-04-15T08:02:45;15.00;62.30
19050;DHT22;9657;45.940;12.840;2023-04-15T08:05:13;15.00;62.30
19050;DHT22;9657;45.940;12.840;2023-04-15T08:07:40;15.00;62.30
19050;DHT22;9657;45.940;12.840;2023-04-15T08:10:08;15.00;62.30
19050;DHT22;9657;45.940;12.840;2023-04-15T08:12:35;15.00;62.30
19050;DHT22;9657;45.940;12.840;2023-04-15T08:15:03;15.10;62.40
19050;DHT22;9657;45.940;12.840;2023-04-15T08:17:30;15.10;62.40
19050;DHT22;9657;45.940;12.840;2023-04-15T08:19:58;15.00;62.30
19050;DHT22;9657;45.940;12.840;2023-04-15T08:22:25;15.00;62.40
19050;DHT22;9657;45.940;12.840;2023-04-15T08:24:53;15.10;62.50
19050;DHT22;9657;45.940;12.840;2023-04-15T08:27:20;15.10;62.50
19050;DHT22;9657;45.940;12.840;2023-04-15T08:29:47;15.10;62.50
19050;DHT22;9657;45.940;12.840;2023-04-15T08:32:14;15.10;62.50
19050;DHT22;9657;45.940;12.840;2023-04-15T08:34:41;15.10;62.50
19050;DHT22;9657;45.940;12.840;2023-04-15T08:37:09;15.10;62.50
19050;DHT22;9657;45.940;12.840;2023-04-15T08:39:36;15.10;62.60
19050;DHT22;9657;45.940;12.840;2023-04-15T08:42:07;15.10;62.50
19050;DHT22;9657;45.940;12.840;2023-04-15T08:44:37;15.10;62.50
19050;DHT22;9657;45.940;12.840;2023-04-15T08:47:07;15.10;63.20
19050;DHT22;9657;45.940;12.840;2023-04-15T08:49:38;15.10;62.30
19050;DHT22;9657;45.940;12.840;2023-04-15T08:52:06;15.20;62.40
19050;DHT22;9657;45.940;12.840;2023-04-15T08:54:35;15.10;62.30
19050;DHT22;9657;45.940;12.840;2023-04-15T08:57:03;15.20;62.50
19050;DHT22;9657;45.940;12.840;2023-04-15T08:59:31;15.10;62.40
19050;DHT22;9657;45.940;12.840;2023-04-15T09:01:58;15.20;62.50
19050;DHT22;9657;45.940;12.840;2023-04-15T09:04:26;15.20;62.40
19050;DHT22;9657;45.940;12.840;2023-04-15T09:06:53;15.20;62.40
19050;DHT22;9657;45.940;12.840;2023-04-15T09:09:21;15.20;62.40
19050;DHT22;9657;45.940;12.840;2023-04-15T09:11:50;15.20;62.40
19050;DHT22;9657;45.940;12.840;2023-04-15T09:14:17;15.20;62.40
19050;DHT22;9657;45.940;12.840;2023-04-15T09:16:57;15.20;62.50
19050;DHT22;9657;45.940;12.840;2023-04-15T09:19:24;15.20;62.50
19050;DHT22;9657;45.940;12.840;2023-04-15T09:21:53;15.20;62.50
19050;DHT22;9657;45.940;12.840;2023-04-15T09:24:21;15.20;62.60
19050;DHT22;9657;45.940;12.840;2023-04-15T09:26:53;15.20;62.50
19050;DHT22;9657;45.940;12.840;2023-04-15T09:29:23;15.20;62.50
19050;DHT22;9657;45.940;12.840;2023-04-15T09:31:51;15.20;62.60
19050;DHT22;9657;45.940;12.840;2023-04-15T09:34:18;15.20;62.60
19050;DHT22;9657;45.940;12.840;2023-04-15T09:36:52;15.20;62.70
19050;DHT22;9657;45.940;12.840;2023-04-15T09:39:20;15.20;63.00
19050;DHT22;9657;45.940;12.840;2023-04-15T09:42:04;15.30;63.00
19050;DHT22;9657;45.940;12.840;2023-04-15T09:44:32;15.30;63.10
19050;DHT22;9657;45.940;12.840;2023-04-15T09:46:59;15.30;63.00
19050;DHT22;9657;45.940;12.840;2023-04-15T09:49:26;15.30;62.90
19050;DHT22;9657;45.940;12.840;2023-04-15T09:51:58;15.30;62.80
19050;DHT22;9657;45.940;12.840;2023-04-15T09:54:32;15.30;62.60
19050;DHT22;9657;45.940;12.840;2023-04-15T09:57:06;15.40;62.90
19050;DHT22;9657;45.940;12.840;2023-04-15T09:59:33;15.40;62.60
19050;DHT22;9657;45.940;12.840;2023-04-15T10:02:03;15.40;62.60
19050;DHT22;9657;45.940;12.840;2023-04-15T10:04:34;15.50;62.60
19050;DHT22;9657;45.940;12.840;2023-04-15T10:07:03;15.50;62.30
19050;DHT22;9657;45.940;12.840;2023-04-15T10:09:31;15.50;62.30
19050;DHT22;9657;45.940;12.840;2023-04-15T10:11:59;15.50;62.00
19050;DHT22;9657;45.940;12.840;2023-04-15T10:14:32;15.50;61.90
19050;DHT22;9657;45.940;12.840;2023-04-15T10:17:01;15.60;61.90
19050;DHT22;9657;45.940;12.840;2023-04-15T10:19:31;15.60;62.30
19050;DHT22;9657;45.940;12.840;2023-04-15T10:21:59;15.60;61.60
19050;DHT22;9657;45.940;12.840;2023-04-15T10:24:26;15.60;61.50
19050;DHT22;9657;45.940;12.840;2023-04-15T10:26:54;15.60;61.40
19050;DHT22;9657;45.940;12.840;2023-04-15T10:29:23;15.70;61.40
19050;DHT22;9657;45.940;12.840;2023-04-15T10:31:53;15.70;61.20
19050;DHT22;9657;45.940;12.840;2023-04-15T10:34:22;15.70;61.10
19050;DHT22;9657;45.940;12.840;2023-04-15T10:36:49;15.70;61.00
19050;DHT22;9657;45.940;12.840;2023-04-15T10:39:40;15.70;60.90
19050;DHT22;9657;45.940;12.840;2023-04-15T10:42:08;15.80;61.00
19050;DHT22;9657;45.940;12.840;2023-04-15T10:44:36;15.80;60.90
19050;DHT22;9657;45.940;12.840;2023-04-15T10:47:11;15.70;60.80
19050;DHT22;9657;45.940;12.840;2023-04-15T10:49:43;15.80;61.00
19050;DHT22;9657;45.940;12.840;2023-04-15T10:52:10;15.80;61.10
19050;DHT22;9657;45.940;12.840;2023-04-15T10:54:38;15.80;60.90
19050;DHT22;9657;45.940;12.840;2023-04-15T10:57:13;15.80;60.90
19050;DHT22;9657;45.940;12.840;2023-04-15T10:59:58;15.80;60.90
19050;DHT22;9657;45.940;12.840;2023-04-15T11:02:39;15.80;60.90
19050;DHT22;9657;45.940;12.840;2023-04-15T11:05:07;15.70;60.90
19050;DHT22;9657;45.940;12.840;2023-04-15T11:07:36;15.80;60.90
19050;DHT22;9657;45.940;12.840;2023-04-15T11:13:28;15.80;61.00
19050;DHT22;9657;45.940;12.840;2023-04-15T11:16:01;15.80;60.90
19050;DHT22;9657;45.940;12.840;2023-04-15T11:18:33;15.80;60.80
19050;DHT22;9657;45.940;12.840;2023-04-15T11:21:02;15.80;60.90
19050;DHT22;9657;45.940;12.840;2023-04-15T11:23:32;15.80;60.90
19050;DHT22;9657;45.940;12.840;2023-04-15T11:26:00;15.80;60.90
19050;DHT22;9657;45.940;12.840;2023-04-15T11:28:30;15.80;60.90
19050;DHT22;9657;45.940;12.840;2023-04-15T11:31:02;15.80;60.90
19050;DHT22;9657;45.940;12.840;2023-04-15T11:33:32;15.80;60.90
19050;DHT22;9657;45.940;12.840;2023-04-15T11:36:00;15.80;60.90
19050;DHT22;9657;45.940;12.840;2023-04-15T11:38:28;15.80;61.00
19050;DHT22;9657;45.940;12.840;2023-04-15T11:40:57;15.80;60.90
19050;DHT22;9657;45.940;12.840;2023-04-15T11:43:24;15.80;60.90
19050;DHT22;9657;45.940;12.840;2023-04-15T11:45:52;15.80;60.90
19050;DHT22;9657;45.940;12.840;2023-04-15T11:48:22;15.80;60.90
19050;DHT22;9657;45.940;12.840;2023-04-15T11:50:54;15.80;61.00
19050;DHT22;9657;45.940;12.840;2023-04-15T11:53:22;15.80;61.00
19050;DHT22;9657;45.940;12.840;2023-04-15T11:55:52;15.80;61.00
19050;DHT22;9657;45.940;12.840;2023-04-15T11:58:20;15.80;61.10
19050;DHT22;9657;45.940;12.840;2023-04-15T12:00:49;15.80;61.00
19050;DHT22;9657;45.940;12.840;2023-04-15T12:03:22;15.80;61.10
19050;DHT22;9657;45.940;12.840;2023-04-15T12:08:55;15.80;61.30
19050;DHT22;9657;45.940;12.840;2023-04-15T12:11:37;15.80;61.40
19050;DHT22;9657;45.940;12.840;2023-04-15T12:14:15;15.80;61.40
19050;DHT22;9657;45.940;12.840;2023-04-15T12:16:44;15.80;61.50
19050;DHT22;9657;45.940;12.840;2023-04-15T12:19:14;15.80;61.50
19050;DHT22;9657;45.940;12.840;2023-04-15T12:21:44;15.80;61.40
19050;DHT22;9657;45.940;12.840;2023-04-15T12:24:11;15.80;61.50
19050;DHT22;9657;45.940;12.840;2023-04-15T12:26:43;15.80;61.50
19050;DHT22;9657;45.940;12.840;2023-04-15T12:29:13;15.80;61.60
19050;DHT22;9657;45.940;12.840;2023-04-15T12:31:52;15.80;61.60
19050;DHT22;9657;45.940;12.840;2023-04-15T12:34:26;15.80;61.80
19050;DHT22;9657;45.940;12.840;2023-04-15T12:36:56;15.80;61.90
19050;DHT22;9657;45.940;12.840;2023-04-15T12:39:23;15.80;61.80
19050;DHT22;9657;45.940;12.840;2023-04-15T12:41:51;15.80;61.90
19050;DHT22;9657;45.940;12.840;2023-04-15T12:44:18;15.80;61.80
19050;DHT22;9657;45.940;12.840;2023-04-15T12:46:45;15.80;61.80
19050;DHT22;9657;45.940;12.840;2023-04-15T12:49:12;15.80;61.90
19050;DHT22;9657;45.940;12.840;2023-04-15T12:51:40;15.80;61.90
19050;DHT22;9657;45.940;12.840;2023-04-15T12:54:09;15.80;61.90
19050;DHT22;9657;45.940;12.840;2023-04-15T12:56:36;15.80;61.90
19050;DHT22;9657;45.940;12.840;2023-04-15T12:59:03;15.80;61.90
19050;DHT22;9657;45.940;12.840;2023-04-15T13:01:30;15.80;62.00
19050;DHT22;9657;45.940;12.840;2023-04-15T13:03:57;15.80;62.00
19050;DHT22;9657;45.940;12.840;2023-04-15T13:06:24;15.80;62.00
19050;DHT22;9657;45.940;12.840;2023-04-15T13:08:51;15.80;61.90
19050;DHT22;9657;45.940;12.840;2023-04-15T13:11:22;15.80;61.80
19050;DHT22;9657;45.940;12.840;2023-04-15T13:13:50;15.80;61.90
19050;DHT22;9657;45.940;12.840;2023-04-15T13:16:17;15.80;61.80
19050;DHT22;9657;45.940;12.840;2023-04-15T13:18:45;15.80;61.80
19050;DHT22;9657;45.940;12.840;2023-04-15T13:21:12;15.80;61.80
19050;DHT22;9657;45.940;12.840;2023-04-15T13:23:40;15.80;61.60
19050;DHT22;9657;45.940;12.840;2023-04-15T13:26:07;15.80;61.80
19050;DHT22;9657;45.940;12.840;2023-04-15T13:28:36;15.80;62.60
19050;DHT22;9657;45.940;12.840;2023-04-15T13:31:04;15.80;61.80
19050;DHT22;9657;45.940;12.840;2023-04-15T13:33:31;15.80;62.00
19050;DHT22;9657;45.940;12.840;2023-04-15T13:35:58;15.80;62.10
19050;DHT22;9657;45.940;12.840;2023-04-15T13:38:25;15.80;62.10
19050;DHT22;9657;45.940;12.840;2023-04-15T13:40:52;15.80;62.20
19050;DHT22;9657;45.940;12.840;2023-04-15T13:43:19;15.80;62.20
19050;DHT22;9657;45.940;12.840;2023-04-15T13:45:48;15.80;62.30
19050;DHT22;9657;45.940;12.840;2023-04-15T13:48:16;15.80;62.30
19050;DHT22;9657;45.940;12.840;2023-04-15T13:50:43;15.80;62.30
19050;DHT22;9657;45.940;12.840;2023-04-15T13:53:10;15.80;62.30
19050;DHT22;9657;45.940;12.840;2023-04-15T13:55:37;15.80;62.30
19050;DHT22;9657;45.940;12.840;2023-04-15T13:58:06;15.80;62.10
19050;DHT22;9657;45.940;12.840;2023-04-15T14:00:33;15.80;62.80
19050;DHT22;9657;45.940;12.840;2023-04-15T14:03:01;15.80;62.00
19050;DHT22;9657;45.940;12.840;2023-04-15T14:05:29;15.80;61.90
19050;DHT22;9657;45.940;12.840;2023-04-15T14:07:56;15.80;62.00
19050;DHT22;9657;45.940;12.840;2023-04-15T14:10:23;15.80;62.00
19050;DHT22;9657;45.940;12.840;2023-04-15T14:12:50;15.80;62.20
19050;DHT22;9657;45.940;12.840;2023-04-15T14:15:17;15.80;62.20
19050;DHT22;9657;45.940;12.840;2023-04-15T14:17:44;15.80;62.20
19050;DHT22;9657;45.940;12.840;2023-04-15T14:20:13;15.80;62.20
19050;DHT22;9657;45.940;12.840;2023-04-15T14:22:40;15.80;62.20
19050;DHT22;9657;45.940;12.840;2023-04-15T14:25:07;15.80;62.20
19050;DHT22;9657;45.940;12.840;2023-04-15T14:27:35;15.80;62.30
19050;DHT22;9657;45.940;12.840;2023-04-15T14:30:02;15.80;62.30
19050;DHT22;9657;45.940;12.840;2023-04-15T14:32:29;15.80;62.30
19050;DHT22;9657;45.940;12.840;2023-04-15T14:34:56;15.80;62.30
19050;DHT22;9657;45.940;12.840;2023-04-15T14:37:24;15.80;62.30
19050;DHT22;9657;45.940;12.840;2023-04-15T14:39:51;15.80;62.30
19050;DHT22;9657;45.940;12.840;2023-04-15T14:42:18;15.80;62.40
19050;DHT22;9657;45.940;12.840;2023-04-15T14:44:45;15.80;62.40
19050;DHT22;9657;45.940;12.840;2023-04-15T14:47:12;15.80;62.40
19050;DHT22;9657;45.940;12.840;2023-04-15T14:49:39;15.80;62.50
19050;DHT22;9657;45.940;12.840;2023-04-15T14:52:07;15.80;62.40
19050;DHT22;9657;45.940;12.840;2023-04-15T14:54:35;15.80;62.50
19050;DHT22;9657;45.940;12.840;2023-04-15T14:57:02;15.80;62.40
19050;DHT22;9657;45.940;12.840;2023-04-15T14:59:29;15.80;62.50
19050;DHT22;9657;45.940;12.840;2023-04-15T15:01:56;15.80;62.60
19050;DHT22;9657;45.940;12.840;2023-04-15T15:04:24;15.80;62.50
19050;DHT22;9657;45.940;12.840;2023-04-15T15:06:51;15.80;62.50
19050;DHT22;9657;45.940;12.840;2023-04-15T15:09:18;15.80;62.60
19050;DHT22;9657;45.940;12.840;2023-04-15T15:11:49;15.80;62.60
19050;DHT22;9657;45.940;12.840;2023-04-15T15:14:17;15.80;62.70
19050;DHT22;9657;45.940;12.840;2023-04-15T15:16:44;15.80;63.40
19050;DHT22;9657;45.940;12.840;2023-04-15T15:19:11;15.80;62.70
19050;DHT22;9657;45.940;12.840;2023-04-15T15:21:38;15.80;62.70
19050;DHT22;9657;45.940;12.840;2023-04-15T15:24:05;15.80;62.80
19050;DHT22;9657;45.940;12.840;2023-04-15T15:26:32;15.70;62.70
19050;DHT22;9657;45.940;12.840;2023-04-15T15:29:00;15.80;62.80
19050;DHT22;9657;45.940;12.840;2023-04-15T15:31:27;15.80;62.80
19050;DHT22;9657;45.940;12.840;2023-04-15T15:33:54;15.70;62.70
19050;DHT22;9657;45.940;12.840;2023-04-15T15:36:22;15.80;62.80
19050;DHT22;9657;45.940;12.840;2023-04-15T15:38:49;15.80;62.80
19050;DHT22;9657;45.940;12.840;2023-04-15T15:41:16;15.70;62.70
19050;DHT22;9657;45.940;12.840;2023-04-15T15:43:43;15.70;62.70